Terminal Aerodrome Forecast
Issued by NWS Sioux Falls, SD

Home | Current Version | Previous Version | Graphics & Text | Print | Product List | Glossary Off
Versions: 1 2 3 4 5 6 7 8 9 10 11 12 13 14 15 16 17 18 19 20 21 22 23 24 25 26 27 28 29 30 31 32 33 34 35 36 37 38

000
FTUS43 KFSD 291120
TAFSUX
TAF
KSUX 291120Z 2912/3012 VRB04KT 4SM BR BKN007
      TEMPO 2912/2914 2SM BR
     FM291600 14004KT P6SM SKC
     FM300900 14004KT 4SM BR SKC=

USA.gov is the U.S. government's official web portal to all federal, state and local government web resources and services.